createdAt,value
2023-02-06T00:00:53.616Z,14.35
2023-02-06T00:03:20.807Z,14.32
2023-02-06T00:05:59.501Z,14.29
2023-02-06T00:08:28.030Z,14.28
2023-02-06T00:10:55.569Z,14.27
2023-02-06T00:13:22.895Z,14.25
2023-02-06T00:15:49.896Z,14.23
2023-02-06T00:18:16.855Z,14.21
2023-02-06T00:20:43.746Z,14.19
2023-02-06T00:23:10.686Z,14.17
2023-02-06T00:25:37.661Z,14.16
2023-02-06T00:28:05.239Z,14.14
2023-02-06T00:30:32.162Z,14.12
2023-02-06T00:32:59.199Z,14.11
2023-02-06T00:35:26.244Z,14.07
2023-02-06T00:37:53.204Z,14.07
2023-02-06T00:40:20.162Z,14.05
2023-02-06T00:42:47.077Z,14.05
2023-02-06T00:45:14.088Z,14.03
2023-02-06T00:47:40.931Z,14.01
2023-02-06T00:50:08.152Z,14.00
2023-02-06T00:52:35.126Z,13.98
2023-02-06T00:55:01.971Z,13.97
2023-02-06T00:57:29.208Z,13.93
2023-02-06T00:59:56.019Z,13.92
2023-02-06T01:02:22.945Z,13.91
2023-02-06T01:04:49.798Z,13.90
2023-02-06T01:07:16.704Z,13.90
2023-02-06T01:09:43.529Z,13.88
2023-02-06T01:12:10.387Z,13.88
2023-02-06T01:14:37.561Z,13.86
2023-02-06T01:17:05.249Z,13.86
2023-02-06T01:19:34.176Z,13.85
2023-02-06T01:22:01.137Z,13.85
2023-02-06T01:24:28.092Z,13.83
2023-02-06T01:26:55.000Z,13.82
2023-02-06T01:29:21.923Z,13.81
2023-02-06T01:31:48.841Z,13.81
2023-02-06T01:34:15.821Z,13.79
2023-02-06T01:36:42.669Z,13.78
2023-02-06T01:39:10.474Z,13.78
2023-02-06T01:41:37.310Z,13.77
2023-02-06T01:44:13.672Z,13.75
2023-02-06T01:46:42.491Z,13.76
2023-02-06T01:49:15.327Z,13.74
2023-02-06T01:51:42.604Z,13.74
2023-02-06T01:54:10.477Z,13.75
2023-02-06T01:56:43.971Z,13.73
2023-02-06T01:59:12.098Z,13.73
2023-02-06T02:01:38.960Z,13.74
2023-02-06T02:04:08.691Z,13.73
2023-02-06T02:06:35.847Z,13.73
2023-02-06T02:09:04.744Z,13.72
2023-02-06T02:11:37.843Z,13.71
2023-02-06T02:14:08.813Z,13.72
2023-02-06T02:17:00.181Z,13.72
2023-02-06T02:19:26.837Z,13.73
2023-02-06T02:22:15.412Z,13.71
2023-02-06T02:24:48.006Z,13.72
2023-02-06T02:27:45.161Z,13.69
2023-02-06T02:30:26.088Z,13.70
2023-02-06T02:33:18.192Z,13.68
2023-02-06T02:35:44.969Z,13.69
2023-02-06T02:38:45.647Z,13.69
2023-02-06T02:41:28.090Z,13.69
2023-02-06T02:44:30.400Z,13.70
2023-02-06T02:47:02.104Z,13.69
2023-02-06T02:49:32.463Z,13.69
2023-02-06T02:52:00.132Z,13.67
2023-02-06T02:54:27.083Z,13.67
2023-02-06T02:56:58.521Z,13.66
2023-02-06T02:59:32.730Z,13.66
2023-02-06T03:02:15.384Z,13.66
2023-02-06T03:04:51.522Z,13.65
2023-02-06T03:07:27.573Z,13.66
2023-02-06T03:10:19.107Z,13.66
2023-02-06T03:12:54.359Z,13.67
2023-02-06T03:15:31.186Z,13.66
2023-02-06T03:18:06.986Z,13.65
2023-02-06T03:20:37.167Z,13.65
2023-02-06T03:23:07.126Z,13.65
2023-02-06T03:25:39.161Z,13.65
2023-02-06T03:28:13.503Z,13.66
2023-02-06T03:30:42.886Z,13.65
2023-02-06T03:33:13.796Z,13.65
2023-02-06T03:35:40.792Z,13.66
2023-02-06T03:38:09.506Z,13.65
2023-02-06T03:40:37.798Z,13.65
2023-02-06T03:43:05.955Z,13.65
2023-02-06T03:45:42.687Z,13.66
2023-02-06T03:48:17.577Z,13.64
2023-02-06T03:50:48.304Z,13.67
2023-02-06T03:53:17.218Z,13.67
2023-02-06T03:55:47.527Z,13.66
2023-02-06T03:58:15.053Z,13.65
2023-02-06T04:00:44.833Z,13.65
2023-02-06T04:03:13.312Z,13.66
2023-02-06T04:05:41.300Z,13.66
2023-02-06T04:08:08.156Z,13.64
2023-02-06T04:10:35.034Z,13.65
2023-02-06T04:13:02.010Z,13.65
2023-02-06T04:15:28.982Z,13.66
2023-02-06T04:18:01.248Z,13.65
2023-02-06T04:20:29.738Z,13.65
2023-02-06T04:22:57.327Z,13.64
2023-02-06T04:25:24.239Z,13.65
2023-02-06T04:27:51.246Z,13.66
2023-02-06T04:30:18.572Z,13.64
2023-02-06T04:32:45.574Z,13.63
2023-02-06T04:35:12.464Z,13.65
2023-02-06T04:37:39.414Z,13.64
2023-02-06T04:40:06.900Z,13.64
2023-02-06T04:42:33.719Z,13.64
2023-02-06T04:45:00.552Z,13.66
2023-02-06T04:47:27.650Z,13.65
2023-02-06T04:49:54.478Z,13.61
2023-02-06T04:52:21.299Z,13.64
2023-02-06T04:54:48.147Z,13.64
2023-02-06T04:57:14.963Z,13.64
2023-02-06T04:59:41.754Z,13.63
2023-02-06T05:02:08.575Z,13.64
2023-02-06T05:04:35.366Z,13.63
2023-02-06T05:07:03.959Z,13.63
2023-02-06T05:09:32.338Z,13.62
2023-02-06T05:11:59.534Z,13.63
2023-02-06T05:14:26.457Z,13.61
2023-02-06T05:16:53.246Z,13.62
2023-02-06T05:19:20.080Z,13.63
2023-02-06T05:21:47.110Z,13.63
2023-02-06T05:24:13.984Z,13.63
2023-02-06T05:26:40.814Z,13.62
2023-02-06T05:29:07.948Z,13.62
2023-02-06T05:31:36.121Z,13.63
2023-02-06T05:34:02.998Z,13.61
2023-02-06T05:36:29.959Z,13.62
2023-02-06T05:38:57.490Z,13.61
2023-02-06T05:41:24.465Z,13.63
2023-02-06T05:43:51.321Z,13.66
2023-02-06T05:46:19.684Z,13.69
2023-02-06T05:48:46.685Z,13.72
2023-02-06T05:51:13.556Z,13.72
2023-02-06T05:53:40.401Z,13.75
2023-02-06T05:56:07.429Z,13.76
2023-02-06T05:58:34.745Z,13.77
2023-02-06T06:01:01.597Z,13.76
2023-02-06T06:03:28.443Z,13.80
2023-02-06T06:05:55.941Z,13.81
2023-02-06T06:08:23.431Z,13.82
2023-02-06T06:10:52.279Z,13.82
2023-02-06T06:13:19.330Z,13.78
2023-02-06T06:15:46.312Z,13.79
2023-02-06T06:18:13.233Z,13.80
2023-02-06T06:20:40.057Z,13.84
2023-02-06T06:23:06.894Z,13.87
2023-02-06T06:25:35.502Z,13.88
2023-02-06T06:28:03.285Z,13.88
2023-02-06T06:30:30.629Z,13.89
2023-02-06T06:32:57.629Z,13.87
2023-02-06T06:35:26.261Z,13.85
2023-02-06T06:37:53.094Z,13.82
2023-02-06T06:40:20.153Z,13.84
2023-02-06T06:42:47.044Z,13.81
2023-02-06T06:45:14.101Z,13.81
2023-02-06T06:47:41.237Z,13.81
2023-02-06T06:50:08.821Z,13.83
2023-02-06T06:52:35.746Z,13.83
2023-02-06T06:55:02.728Z,13.84
2023-02-06T06:57:33.068Z,13.84
2023-02-06T07:00:00.056Z,13.85
2023-02-06T07:02:28.840Z,13.85
2023-02-06T07:04:55.990Z,13.86
2023-02-06T07:07:23.142Z,13.86
2023-02-06T07:09:50.229Z,13.86
2023-02-06T07:12:17.231Z,13.86
2023-02-06T07:14:44.238Z,13.85
2023-02-06T07:17:11.261Z,13.86
2023-02-06T07:19:38.236Z,13.86
2023-02-06T07:22:05.518Z,13.88
2023-02-06T07:24:32.435Z,13.80
2023-02-06T07:26:59.479Z,13.61
2023-02-06T07:29:26.452Z,13.47
2023-02-06T07:31:53.442Z,13.44
2023-02-06T07:34:20.478Z,13.53
2023-02-06T07:36:47.657Z,13.60
2023-02-06T07:39:14.651Z,13.63
2023-02-06T07:41:41.701Z,13.66
2023-02-06T07:44:11.222Z,13.69
2023-02-06T07:46:38.149Z,13.70
2023-02-06T07:49:05.209Z,13.72
2023-02-06T07:51:32.609Z,13.74
2023-02-06T07:53:59.538Z,13.75
2023-02-06T07:56:26.620Z,13.76
2023-02-06T07:58:55.296Z,13.77
2023-02-06T08:01:23.396Z,13.76
2023-02-06T08:03:51.546Z,13.77
2023-02-06T08:06:19.375Z,13.79
2023-02-06T08:08:46.966Z,13.79
2023-02-06T08:11:17.316Z,13.80
2023-02-06T08:13:44.817Z,13.82
2023-02-06T08:16:18.774Z,13.82
2023-02-06T08:18:46.117Z,13.81
2023-02-06T08:21:16.356Z,13.84
2023-02-06T08:23:43.878Z,13.84
2023-02-06T08:26:12.421Z,13.86
2023-02-06T08:28:42.180Z,13.83
2023-02-06T08:31:15.736Z,13.84
2023-02-06T08:33:42.758Z,13.84
2023-02-06T08:36:11.114Z,13.85
2023-02-06T08:38:39.087Z,13.86
2023-02-06T08:41:15.044Z,13.89
2023-02-06T08:43:41.973Z,13.90
2023-02-06T08:46:08.891Z,13.90
2023-02-06T08:48:35.951Z,13.88
2023-02-06T08:51:07.809Z,13.90
2023-02-06T08:53:34.893Z,13.95
2023-02-06T08:56:08.051Z,13.91
2023-02-06T08:58:35.160Z,13.86
2023-02-06T09:01:10.077Z,13.91
2023-02-06T09:03:37.411Z,13.92
2023-02-06T09:06:10.283Z,13.98
2023-02-06T09:08:38.921Z,14.01
2023-02-06T09:11:17.625Z,14.03
2023-02-06T09:13:49.200Z,14.04
2023-02-06T09:16:18.571Z,14.05
2023-02-06T09:18:45.950Z,14.05
2023-02-06T09:21:22.052Z,14.08
2023-02-06T09:23:51.961Z,14.08
2023-02-06T09:26:23.495Z,14.14
2023-02-06T09:28:58.105Z,14.13
2023-02-06T09:31:27.006Z,14.12
2023-02-06T09:33:54.006Z,14.15
2023-02-06T09:36:22.040Z,14.14
2023-02-06T09:38:58.098Z,14.14
2023-02-06T09:41:37.342Z,14.14
2023-02-06T09:44:39.779Z,14.17
2023-02-06T09:47:28.008Z,14.14
2023-02-06T09:49:59.978Z,14.14
2023-02-06T09:52:30.044Z,14.13
2023-02-06T09:55:06.127Z,14.15
2023-02-06T09:57:33.382Z,14.16
2023-02-06T10:00:04.128Z,14.17
2023-02-06T10:02:53.004Z,14.18
2023-02-06T10:05:26.480Z,14.16
2023-02-06T10:08:03.666Z,14.13
2023-02-06T10:10:58.832Z,14.14
2023-02-06T10:13:44.108Z,14.16
2023-02-06T10:16:24.751Z,14.20
2023-02-06T10:18:55.570Z,14.23
2023-02-06T10:21:41.674Z,14.25
2023-02-06T10:24:20.096Z,14.24
2023-02-06T10:26:50.581Z,14.25
2023-02-06T10:29:36.752Z,14.24
2023-02-06T10:32:39.094Z,14.25
2023-02-06T10:35:11.840Z,14.26
2023-02-06T10:37:53.360Z,14.25
2023-02-06T10:40:26.352Z,14.26
2023-02-06T10:43:18.179Z,14.28
2023-02-06T10:46:06.170Z,14.29
2023-02-06T10:48:37.668Z,14.26
2023-02-06T10:51:16.362Z,14.27
2023-02-06T10:53:52.281Z,14.25
2023-02-06T10:56:29.223Z,14.23
2023-02-06T10:59:13.087Z,14.23
2023-02-06T11:01:43.362Z,14.22
2023-02-06T11:04:19.981Z,14.20
2023-02-06T11:06:47.383Z,14.17
2023-02-06T11:09:15.998Z,14.17
2023-02-06T11:11:50.172Z,14.15
2023-02-06T11:14:32.061Z,14.13
2023-02-06T11:17:02.241Z,14.12
2023-02-06T11:19:38.920Z,14.10
2023-02-06T11:22:07.566Z,14.07
2023-02-06T11:24:36.234Z,14.06
2023-02-06T11:27:20.952Z,14.04
2023-02-06T11:29:52.073Z,14.04
2023-02-06T11:33:02.666Z,14.02
2023-02-06T11:35:39.613Z,14.01
2023-02-06T11:38:22.143Z,14.01
2023-02-06T11:40:57.009Z,13.98
2023-02-06T11:43:27.288Z,13.97
2023-02-06T11:46:16.103Z,13.92
2023-02-06T11:49:01.580Z,13.91
2023-02-06T11:52:00.080Z,13.90
2023-02-06T11:54:35.082Z,13.89
2023-02-06T11:57:21.070Z,13.88
2023-02-06T12:00:03.920Z,13.88
2023-02-06T12:02:32.249Z,13.87
2023-02-06T12:05:03.156Z,13.90
2023-02-06T12:07:38.295Z,13.91
2023-02-06T12:10:20.310Z,13.93
2023-02-06T12:13:02.616Z,13.94
2023-02-06T12:15:47.883Z,13.95
2023-02-06T12:18:24.524Z,13.96
2023-02-06T12:20:56.626Z,13.98
2023-02-06T12:23:41.501Z,13.98
2023-02-06T12:26:18.994Z,13.98
2023-02-06T12:28:57.694Z,14.01
2023-02-06T12:31:43.411Z,14.00
2023-02-06T12:34:13.463Z,14.04
2023-02-06T12:36:59.213Z,14.06
2023-02-06T12:39:32.111Z,14.05
2023-02-06T12:42:21.813Z,14.05
2023-02-06T12:45:13.655Z,14.05
2023-02-06T12:48:07.343Z,14.06
2023-02-06T12:50:46.087Z,14.05
2023-02-06T12:53:39.516Z,14.08
2023-02-06T12:56:42.031Z,14.07
2023-02-06T12:59:18.162Z,14.07
2023-02-06T13:02:01.299Z,14.09
2023-02-06T13:04:32.864Z,14.10
2023-02-06T13:07:16.963Z,14.11
2023-02-06T13:19:44.985Z,14.26
2023-02-06T13:22:13.268Z,14.27
2023-02-06T13:24:42.975Z,14.29
2023-02-06T13:27:12.865Z,14.30
2023-02-06T13:29:52.155Z,14.29
2023-02-06T13:32:18.993Z,14.14
2023-02-06T13:35:21.116Z,14.09
2023-02-06T13:37:50.430Z,14.21
2023-02-06T13:40:23.956Z,14.30
2023-02-06T13:43:10.402Z,14.38
2023-02-06T13:45:43.117Z,14.44
2023-02-06T13:48:31.189Z,14.49
2023-02-06T13:51:14.559Z,14.56
2023-02-06T13:54:07.143Z,14.61
2023-02-06T13:57:11.628Z,14.70
2023-02-06T13:59:45.261Z,14.74
2023-02-06T14:02:18.896Z,14.84
2023-02-06T14:04:47.116Z,14.88
2023-02-06T14:07:38.478Z,14.90
2023-02-06T14:10:13.714Z,14.96
2023-02-06T14:13:18.396Z,15.02
2023-02-06T14:15:59.454Z,15.06
2023-02-06T14:18:38.915Z,15.11
2023-02-06T14:21:47.510Z,15.16
2023-02-06T14:24:30.114Z,15.21
2023-02-06T14:27:05.994Z,15.22
2023-02-06T14:29:38.935Z,15.25
2023-02-06T14:32:28.785Z,15.27
2023-02-06T14:35:26.998Z,15.31
2023-02-06T14:38:15.496Z,15.34
2023-02-06T14:40:47.698Z,15.35
2023-02-06T14:43:21.706Z,15.40
2023-02-06T14:46:07.353Z,15.37
2023-02-06T14:48:44.800Z,15.40
2023-02-06T14:51:37.335Z,15.43
2023-02-06T14:54:26.315Z,15.28
2023-02-06T14:56:58.778Z,15.08
2023-02-06T14:59:25.835Z,15.03
2023-02-06T15:01:55.016Z,14.94
2023-02-06T15:04:27.957Z,14.87
2023-02-06T15:07:03.933Z,14.86
2023-02-06T15:09:36.737Z,14.92
2023-02-06T15:12:18.031Z,14.99
2023-02-06T15:15:03.226Z,15.00
2023-02-06T15:17:32.153Z,15.04
2023-02-06T15:20:21.460Z,15.08
2023-02-06T15:22:48.584Z,15.09
2023-02-06T15:25:44.720Z,15.13
2023-02-06T15:28:21.087Z,15.14
2023-02-06T15:30:54.624Z,15.21
2023-02-06T15:33:29.001Z,15.25
2023-02-06T15:35:58.845Z,15.27
2023-02-06T15:38:28.318Z,15.32
2023-02-06T15:40:59.502Z,15.35
2023-02-06T15:43:27.912Z,15.38
2023-02-06T15:46:01.647Z,15.37
2023-02-06T15:48:43.635Z,15.44
2023-02-06T15:51:24.714Z,15.50
2023-02-06T15:54:05.873Z,15.50
2023-02-06T15:56:37.748Z,15.54
2023-02-06T15:59:08.074Z,15.59
2023-02-06T16:01:40.461Z,15.60
2023-02-06T16:04:22.470Z,15.58
2023-02-06T16:07:19.873Z,15.57
2023-02-06T16:10:12.858Z,15.58
2023-02-06T16:12:42.375Z,15.60
2023-02-06T16:15:30.703Z,15.58
2023-02-06T16:18:00.349Z,15.56
2023-02-06T16:20:37.458Z,15.57
2023-02-06T16:23:26.433Z,15.58
2023-02-06T16:26:24.397Z,15.61
2023-02-06T16:29:03.843Z,15.58
2023-02-06T16:31:35.070Z,15.57
2023-02-06T16:34:05.445Z,15.64
2023-02-06T16:36:33.914Z,15.68
2023-02-06T16:39:04.511Z,15.68
2023-02-06T16:41:41.754Z,15.77
2023-02-06T16:44:13.738Z,15.80
2023-02-06T16:46:41.262Z,15.80
2023-02-06T16:49:14.733Z,15.86
2023-02-06T16:51:43.471Z,15.91
2023-02-06T16:54:27.747Z,15.93
2023-02-06T16:56:57.720Z,15.97
2023-02-06T16:59:24.737Z,16.01
2023-02-06T17:01:51.748Z,16.01
2023-02-06T17:04:18.874Z,16.05
2023-02-06T17:06:45.894Z,16.08
2023-02-06T17:09:17.725Z,16.10
2023-02-06T17:11:45.327Z,16.15
2023-02-06T17:14:12.372Z,16.17
2023-02-06T17:16:39.532Z,16.17
2023-02-06T17:19:06.495Z,16.17
2023-02-06T17:21:33.708Z,16.19
2023-02-06T17:24:00.992Z,16.22
2023-02-06T17:26:28.094Z,16.22
2023-02-06T17:28:55.170Z,16.23
2023-02-06T17:31:22.561Z,16.25
2023-02-06T17:33:50.204Z,16.25
2023-02-06T17:36:22.990Z,16.25
2023-02-06T17:38:50.083Z,16.28
2023-02-06T17:41:17.037Z,16.34
2023-02-06T17:43:44.762Z,16.37
2023-02-06T17:46:13.451Z,16.38
2023-02-06T17:48:42.939Z,16.44
2023-02-06T17:51:10.745Z,16.44
2023-02-06T17:53:37.913Z,16.46
2023-02-06T17:56:12.283Z,16.48
2023-02-06T17:58:40.959Z,16.48
2023-02-06T18:01:23.736Z,16.49
2023-02-06T18:03:50.980Z,16.50
2023-02-06T18:06:18.970Z,16.50
2023-02-06T18:08:46.818Z,16.49
2023-02-06T18:11:22.085Z,16.50
2023-02-06T18:13:50.318Z,16.49
2023-02-06T18:16:21.326Z,16.48
2023-02-06T18:18:48.715Z,16.47
2023-02-06T18:21:19.530Z,16.46
2023-02-06T18:23:47.752Z,16.49
2023-02-06T18:26:15.181Z,16.45
2023-02-06T18:28:42.155Z,16.43
2023-02-06T18:31:39.298Z,16.42
2023-02-06T18:34:08.381Z,16.40
2023-02-06T18:36:39.073Z,16.38
2023-02-06T18:39:06.964Z,16.41
2023-02-06T18:41:52.867Z,16.38
2023-02-06T18:44:19.944Z,16.38
2023-02-06T18:46:48.159Z,16.39
2023-02-06T18:49:15.738Z,16.35
2023-02-06T18:51:43.697Z,16.32
2023-02-06T18:54:11.369Z,16.32
2023-02-06T18:56:40.318Z,16.31
2023-02-06T18:59:07.380Z,16.32
2023-02-06T19:01:35.099Z,16.29
2023-02-06T19:04:03.091Z,16.25
2023-02-06T19:06:35.581Z,16.24
2023-02-06T19:09:07.352Z,16.21
2023-02-06T19:11:36.213Z,16.24
2023-02-06T19:14:06.195Z,16.25
2023-02-06T19:16:34.733Z,16.18
2023-02-06T19:19:02.428Z,16.22
2023-02-06T19:21:30.411Z,16.25
2023-02-06T19:24:00.660Z,16.27
2023-02-06T19:26:29.257Z,16.26
2023-02-06T19:28:57.765Z,16.27
2023-02-06T19:31:25.621Z,16.28
2023-02-06T19:33:55.336Z,16.28
2023-02-06T19:36:28.564Z,16.30
2023-02-06T19:39:00.295Z,16.30
2023-02-06T19:41:31.301Z,16.30
2023-02-06T19:44:02.005Z,16.28
2023-02-06T19:46:29.663Z,16.27
2023-02-06T19:48:57.009Z,16.25
2023-02-06T19:51:30.565Z,16.23
2023-02-06T19:53:59.373Z,16.27
2023-02-06T19:56:32.027Z,16.29
2023-02-06T19:59:05.382Z,16.32
2023-02-06T20:01:33.236Z,16.31
2023-02-06T20:04:02.806Z,16.36
2023-02-06T20:06:35.251Z,16.37
2023-02-06T20:09:04.826Z,16.42
2023-02-06T20:11:34.475Z,16.40
2023-02-06T20:14:02.333Z,16.42
2023-02-06T20:16:33.467Z,16.40
2023-02-06T20:19:06.481Z,16.43
2023-02-06T20:21:39.710Z,16.44
2023-02-06T20:24:09.432Z,16.48
2023-02-06T20:26:40.150Z,16.48
2023-02-06T20:29:09.774Z,16.47
2023-02-06T20:31:37.507Z,16.47
2023-02-06T20:34:06.968Z,16.50
2023-02-06T20:36:34.409Z,16.49
2023-02-06T20:39:01.727Z,16.44
2023-02-06T20:41:31.941Z,16.46
2023-02-06T20:44:02.677Z,16.44
2023-02-06T20:46:33.531Z,16.44
2023-02-06T20:49:05.097Z,16.42
2023-02-06T20:51:34.891Z,16.41
2023-02-06T20:54:02.287Z,16.38
2023-02-06T20:56:29.873Z,16.37
2023-02-06T20:58:58.817Z,16.34
2023-02-06T21:01:28.576Z,16.33
2023-02-06T21:04:01.407Z,16.32
2023-02-06T21:06:32.215Z,16.31
2023-02-06T21:09:02.204Z,16.28
2023-02-06T21:11:33.407Z,16.26
2023-02-06T21:14:05.670Z,16.25
2023-02-06T21:16:35.297Z,16.25
2023-02-06T21:19:05.231Z,16.22
2023-02-06T21:21:34.566Z,16.21
2023-02-06T21:24:04.167Z,16.21
2023-02-06T21:26:32.571Z,16.20
2023-02-06T21:29:04.661Z,16.17
2023-02-06T21:31:38.393Z,16.17
2023-02-06T21:34:16.564Z,16.17
2023-02-06T21:36:44.543Z,16.16
2023-02-06T21:39:17.733Z,16.16
2023-02-06T21:41:47.799Z,16.15
2023-02-06T21:44:18.401Z,16.15
2023-02-06T21:46:45.945Z,16.14
2023-02-06T21:49:16.674Z,16.13
2023-02-06T21:51:46.555Z,16.11
2023-02-06T21:54:14.088Z,16.09
2023-02-06T21:56:41.403Z,16.10
2023-02-06T21:59:10.929Z,16.06
2023-02-06T22:01:41.116Z,16.07
2023-02-06T22:04:11.898Z,16.05
2023-02-06T22:06:39.745Z,16.02
2023-02-06T22:09:09.098Z,16.01
2023-02-06T22:11:38.862Z,16.00
2023-02-06T22:14:10.466Z,15.97
2023-02-06T22:16:38.139Z,15.93
2023-02-06T22:19:06.313Z,15.89
2023-02-06T22:21:35.045Z,15.80
2023-02-06T22:24:05.847Z,15.70
2023-02-06T22:26:36.988Z,15.63
2023-02-06T22:29:04.877Z,15.57
2023-02-06T22:31:33.556Z,15.49
2023-02-06T22:34:01.493Z,15.45
2023-02-06T22:36:31.841Z,15.41
2023-02-06T22:39:02.764Z,15.35
2023-02-06T22:41:30.874Z,15.33
2023-02-06T22:43:58.680Z,15.28
2023-02-06T22:46:32.297Z,15.24
2023-02-06T22:48:59.965Z,15.19
2023-02-06T22:51:27.787Z,15.15
2023-02-06T22:53:55.449Z,15.12
2023-02-06T22:56:29.889Z,15.09
2023-02-06T22:59:19.745Z,15.05
2023-02-06T23:01:48.302Z,15.02
2023-02-06T23:04:18.658Z,14.99
2023-02-06T23:06:46.209Z,14.96
2023-02-06T23:09:17.481Z,14.93
2023-02-06T23:11:45.356Z,14.88
2023-02-06T23:14:14.146Z,14.84
2023-02-06T23:16:41.397Z,14.83
2023-02-06T23:19:09.368Z,14.81
2023-02-06T23:21:38.939Z,14.77
2023-02-06T23:24:08.019Z,14.75
2023-02-06T23:26:35.618Z,14.71
2023-02-06T23:29:06.610Z,14.71
2023-02-06T23:31:33.733Z,14.68
2023-02-06T23:34:01.037Z,14.66
2023-02-06T23:36:28.946Z,14.64
2023-02-06T23:38:56.267Z,14.61
2023-02-06T23:41:28.293Z,14.60
2023-02-06T23:44:01.602Z,14.57
2023-02-06T23:46:30.952Z,14.52
2023-02-06T23:48:57.975Z,14.52
2023-02-06T23:51:25.108Z,14.47
2023-02-06T23:53:52.610Z,14.45
2023-02-06T23:56:28.396Z,14.44
2023-02-06T23:58:57.221Z,14.41
